createdAt,value
2018-07-22T00:00:50.649Z,9.75
2018-07-22T00:03:19.741Z,9.45
2018-07-22T00:05:48.825Z,9.77
2018-07-22T00:08:17.997Z,10.60
2018-07-22T00:10:47.104Z,10.20
2018-07-22T00:13:16.183Z,10.17
2018-07-22T00:15:46.055Z,10.80
2018-07-22T00:18:15.110Z,10.27
2018-07-22T00:20:45.062Z,10.60
2018-07-22T00:23:14.898Z,10.28
2018-07-22T00:25:44.948Z,11.20
2018-07-22T00:28:14.862Z,11.70
2018-07-22T00:30:45.034Z,11.40
2018-07-22T00:33:15.049Z,10.93
2018-07-22T00:35:45.368Z,11.70
2018-07-22T00:38:14.910Z,12.03
2018-07-22T00:40:45.159Z,12.37
2018-07-22T00:43:14.989Z,12.65
2018-07-22T00:45:45.467Z,12.75
2018-07-22T00:48:14.952Z,13.30
2018-07-22T00:50:44.032Z,12.77
2018-07-22T00:53:13.169Z,12.03
2018-07-22T00:55:42.644Z,12.67
2018-07-22T00:58:11.756Z,13.13
2018-07-22T01:00:41.154Z,11.97
2018-07-22T01:03:10.346Z,12.30
2018-07-22T01:05:39.381Z,12.73
2018-07-22T01:08:08.558Z,13.50
2018-07-22T01:10:37.653Z,12.30
2018-07-22T01:13:07.195Z,12.20
2018-07-22T01:15:36.515Z,12.63
2018-07-22T01:18:05.901Z,12.17
2018-07-22T01:20:34.982Z,12.50
2018-07-22T01:23:04.282Z,12.80
2018-07-22T01:25:33.492Z,13.83
2018-07-22T01:28:02.556Z,13.18
2018-07-22T01:30:32.073Z,13.30
2018-07-22T01:33:01.147Z,13.60
2018-07-22T01:35:30.279Z,14.18
2018-07-22T01:37:59.331Z,13.00
2018-07-22T01:40:28.632Z,12.47
2018-07-22T01:42:57.972Z,13.20
2018-07-22T01:45:27.837Z,12.25
2018-07-22T01:47:57.343Z,12.28
2018-07-22T01:50:26.473Z,12.58
2018-07-22T01:52:55.546Z,12.07
2018-07-22T01:55:24.630Z,13.28
2018-07-22T01:57:54.217Z,13.93
2018-07-22T02:00:23.310Z,14.33
2018-07-22T02:02:52.809Z,14.30
2018-07-22T02:05:21.902Z,13.40
2018-07-22T02:07:51.510Z,13.93
2018-07-22T02:10:20.933Z,13.70
2018-07-22T02:12:50.432Z,12.47
2018-07-22T02:15:19.529Z,13.23
2018-07-22T02:17:48.581Z,12.57
2018-07-22T02:20:17.684Z,13.07
2018-07-22T02:22:47.598Z,13.73
2018-07-22T02:25:16.945Z,13.90
2018-07-22T02:27:46.214Z,13.78
2018-07-22T02:30:16.528Z,14.63
2018-07-22T02:32:46.092Z,14.13
2018-07-22T02:35:16.177Z,12.50
2018-07-22T02:37:46.204Z,12.83
2018-07-22T02:40:16.598Z,12.33
2018-07-22T02:42:46.162Z,12.57
2018-07-22T02:45:16.418Z,12.43
2018-07-22T02:47:46.420Z,12.25
2018-07-22T02:50:16.540Z,12.90
2018-07-22T02:52:46.315Z,13.10
2018-07-22T02:55:17.742Z,13.15
2018-07-22T02:57:46.874Z,14.20
2018-07-22T03:00:16.659Z,14.60
2018-07-22T03:02:46.562Z,13.15
2018-07-22T03:05:16.510Z,12.40
2018-07-22T03:07:46.508Z,13.55
2018-07-22T03:10:16.450Z,13.43
2018-07-22T03:12:46.499Z,16.65
2018-07-22T03:15:15.853Z,16.90
2018-07-22T03:17:44.923Z,16.10
2018-07-22T03:20:13.996Z,18.40
2018-07-22T03:22:43.032Z,17.13
2018-07-22T03:25:12.234Z,18.10
2018-07-22T03:27:41.614Z,18.20
2018-07-22T03:30:10.914Z,17.07
2018-07-22T03:32:39.969Z,18.23
2018-07-22T03:35:09.063Z,19.30
2018-07-22T03:37:38.084Z,18.67
2018-07-22T03:40:07.274Z,18.13
2018-07-22T03:42:36.351Z,18.07
2018-07-22T03:45:05.852Z,18.97
2018-07-22T03:47:35.068Z,19.07
2018-07-22T03:50:05.983Z,18.63
2018-07-22T03:52:35.153Z,19.57
2018-07-22T03:55:04.937Z,19.20
2018-07-22T03:57:34.180Z,19.70
2018-07-22T04:00:04.119Z,19.27
2018-07-22T04:02:33.177Z,19.55
2018-07-22T04:05:02.293Z,20.50
2018-07-22T04:07:31.798Z,20.08
2018-07-22T04:10:01.299Z,20.17
2018-07-22T04:12:30.380Z,20.10
2018-07-22T04:14:59.905Z,19.50
2018-07-22T04:17:28.980Z,18.62
2018-07-22T04:19:58.255Z,21.20
2018-07-22T04:22:27.597Z,19.62
2018-07-22T04:24:56.937Z,19.62
2018-07-22T04:27:26.151Z,19.90
2018-07-22T04:29:55.231Z,20.90
2018-07-22T04:32:24.415Z,19.12
2018-07-22T04:34:53.543Z,18.92
2018-07-22T04:37:22.609Z,19.13
2018-07-22T04:39:51.693Z,18.30
2018-07-22T04:42:20.761Z,17.50
2018-07-22T04:44:50.045Z,17.10
2018-07-22T04:47:19.162Z,17.53
2018-07-22T04:49:48.468Z,17.30
2018-07-22T04:52:17.647Z,16.50
2018-07-22T04:54:47.779Z,16.60
2018-07-22T04:57:17.859Z,16.35
2018-07-22T04:59:48.149Z,16.00
2018-07-22T05:02:18.074Z,15.88
2018-07-22T05:04:48.007Z,17.30
2018-07-22T05:07:17.952Z,17.52
2018-07-22T05:09:47.839Z,17.80
2018-07-22T05:12:18.065Z,17.87
2018-07-22T05:14:48.113Z,18.90
2018-07-22T05:17:18.301Z,18.37
2018-07-22T05:19:47.903Z,18.20
2018-07-22T05:41:37.111Z,19.20
2018-07-22T05:44:06.873Z,12.93
2018-07-22T05:46:36.224Z,13.70
2018-07-22T05:49:05.823Z,13.37
2018-07-22T05:51:35.049Z,12.80
2018-07-22T05:54:04.252Z,12.60
2018-07-22T05:56:33.311Z,11.97
2018-07-22T05:59:02.396Z,12.28
2018-07-22T06:01:31.800Z,12.20
2018-07-22T06:04:00.928Z,12.60
2018-07-22T06:06:30.396Z,12.20
2018-07-22T06:08:59.484Z,13.00
2018-07-22T06:11:28.602Z,13.48
2018-07-22T06:13:57.759Z,12.98
2018-07-22T06:16:27.212Z,12.95
2018-07-22T06:18:56.651Z,13.78
2018-07-22T06:21:25.794Z,14.20
2018-07-22T06:23:54.972Z,14.68
2018-07-22T06:26:24.051Z,14.77
2018-07-22T06:28:54.488Z,15.40
2018-07-22T06:31:23.841Z,14.57
2018-07-22T06:33:52.947Z,15.60
2018-07-22T06:36:22.135Z,15.90
2018-07-22T06:38:51.560Z,15.90
2018-07-22T06:41:21.300Z,17.00
2018-07-22T06:43:50.414Z,17.40
2018-07-22T06:46:20.075Z,15.87
2018-07-22T06:48:49.987Z,16.30
2018-07-22T06:51:20.264Z,17.73
2018-07-22T06:53:50.166Z,16.37
2018-07-22T06:56:20.066Z,16.42
2018-07-22T06:58:50.060Z,16.03
2018-07-22T07:01:19.990Z,17.10
2018-07-22T07:03:50.385Z,14.83
2018-07-22T07:06:19.922Z,15.00
2018-07-22T07:08:49.977Z,15.37
2018-07-22T07:11:20.101Z,14.78
2018-07-22T07:13:50.037Z,14.53
2018-07-22T07:16:51.856Z,15.00
2018-07-22T07:19:20.923Z,15.38
2018-07-22T07:21:50.104Z,15.83
2018-07-22T07:24:20.377Z,15.53
2018-07-22T07:46:09.842Z,15.33
2018-07-22T07:48:38.996Z,16.60
2018-07-22T07:51:08.498Z,16.07
2018-07-22T07:53:37.922Z,15.63
2018-07-22T07:56:07.477Z,15.97
2018-07-22T07:58:36.566Z,16.77
2018-07-22T08:01:05.684Z,15.48
2018-07-22T08:03:34.789Z,17.57
2018-07-22T08:06:03.954Z,17.90
2018-07-22T08:08:33.055Z,18.52
2018-07-22T08:11:02.168Z,19.00
2018-07-22T08:13:31.298Z,18.00
2018-07-22T08:16:00.690Z,19.40
2018-07-22T08:18:30.106Z,18.70
2018-07-22T08:20:59.208Z,20.12
2018-07-22T08:23:28.342Z,19.50
2018-07-22T08:25:57.728Z,19.63
2018-07-22T08:28:37.926Z,20.17
2018-07-22T08:31:07.385Z,20.40
2018-07-22T08:33:36.476Z,19.85
2018-07-22T08:36:05.768Z,19.95
2018-07-22T08:38:35.264Z,20.30
2018-07-22T08:41:04.836Z,19.70
2018-07-22T08:43:33.862Z,20.43
2018-07-22T08:46:02.991Z,18.70
2018-07-22T08:48:32.463Z,19.48
2018-07-22T08:51:02.141Z,19.97
2018-07-22T08:53:31.921Z,19.63
2018-07-22T08:56:02.204Z,19.53
2018-07-22T08:58:31.337Z,17.80
2018-07-22T09:01:00.404Z,19.67
2018-07-22T09:03:29.468Z,20.00
2018-07-22T09:05:58.595Z,19.60
2018-07-22T09:08:27.711Z,19.10
2018-07-22T09:10:57.283Z,20.57
2018-07-22T09:13:26.711Z,20.05
2018-07-22T09:15:56.069Z,19.00
2018-07-22T09:18:25.399Z,19.47
2018-07-22T09:20:54.497Z,18.70
2018-07-22T09:23:24.016Z,20.17
2018-07-22T09:25:53.426Z,17.90
2018-07-22T09:28:22.562Z,18.60
2018-07-22T09:30:52.513Z,18.35
2018-07-22T09:33:22.732Z,19.07
2018-07-22T09:35:52.441Z,19.07
2018-07-22T09:38:22.473Z,18.62
2018-07-22T09:40:52.835Z,19.07
2018-07-22T09:43:22.923Z,19.23
2018-07-22T09:45:52.514Z,19.37
2018-07-22T09:48:22.543Z,18.50
2018-07-22T09:50:52.653Z,18.62
2018-07-22T09:53:22.921Z,17.90
2018-07-22T09:55:52.667Z,19.23
2018-07-22T09:58:22.796Z,17.35
2018-07-22T10:00:53.739Z,16.80
2018-07-22T10:03:24.869Z,17.33
2018-07-22T10:05:54.117Z,15.70
2018-07-22T10:08:23.231Z,17.77
2018-07-22T10:10:53.169Z,17.10
2018-07-22T10:13:23.144Z,17.15
2018-07-22T10:15:53.327Z,16.23
2018-07-22T10:18:23.350Z,15.83
2018-07-22T10:20:53.039Z,16.80
2018-07-22T10:23:23.124Z,15.40
2018-07-22T10:25:53.207Z,15.53
2018-07-22T10:28:23.308Z,15.37
2018-07-22T10:30:53.227Z,15.20
2018-07-22T10:33:23.678Z,15.63
2018-07-22T10:35:53.259Z,14.18
2018-07-22T10:38:23.957Z,13.77
2018-07-22T10:40:53.414Z,14.20
2018-07-22T10:43:23.304Z,14.47
2018-07-22T10:45:53.550Z,14.90
2018-07-22T10:48:23.273Z,15.73
2018-07-22T10:50:53.489Z,14.50
2018-07-22T10:53:23.798Z,15.83
2018-07-22T10:55:53.608Z,14.40
2018-07-22T10:58:24.182Z,15.60
2018-07-22T11:00:53.431Z,16.03
2018-07-22T11:03:23.522Z,15.40
2018-07-22T11:05:53.810Z,16.37
2018-07-22T11:08:23.689Z,15.97
2018-07-22T11:10:53.435Z,17.05
2018-07-22T11:13:23.568Z,18.10
2018-07-22T11:15:53.483Z,17.87
2018-07-22T11:18:23.774Z,17.60
2018-07-22T11:20:53.528Z,18.20
2018-07-22T11:23:23.925Z,19.23
2018-07-22T11:25:54.007Z,19.23
2018-07-22T11:28:23.487Z,19.73
2018-07-22T11:30:53.675Z,19.10
2018-07-22T11:33:24.321Z,18.07
2018-07-22T11:35:53.685Z,16.80
2018-07-22T11:38:23.877Z,17.75
2018-07-22T11:40:53.803Z,17.52
2018-07-22T11:43:24.087Z,18.20
2018-07-22T11:45:54.308Z,17.37
2018-07-22T11:48:24.389Z,18.57
2018-07-22T11:50:53.796Z,15.93
2018-07-22T11:53:23.905Z,16.65
2018-07-22T11:55:54.153Z,16.03
2018-07-22T11:58:24.085Z,15.10
2018-07-22T12:00:53.799Z,16.63
2018-07-22T12:03:24.211Z,17.52
2018-07-22T12:05:53.893Z,17.77
2018-07-22T12:08:24.146Z,17.87
2018-07-22T12:10:53.990Z,17.17
2018-07-22T12:13:24.396Z,17.30
2018-07-22T12:15:53.977Z,17.27
2018-07-22T12:18:24.212Z,18.60
2018-07-22T12:20:54.017Z,16.82
2018-07-22T12:23:24.025Z,18.10
2018-07-22T12:25:54.158Z,17.35
2018-07-22T12:28:24.138Z,18.87
2018-07-22T12:30:54.437Z,18.60
2018-07-22T12:33:24.128Z,19.87
2018-07-22T12:35:54.353Z,17.30
2018-07-22T12:38:24.108Z,16.30
2018-07-22T12:40:54.280Z,18.27
2018-07-22T12:43:24.281Z,18.00
2018-07-22T12:45:54.559Z,17.40
2018-07-22T12:48:24.096Z,18.03
2018-07-22T12:50:54.621Z,17.32
2018-07-22T12:53:24.337Z,17.27
2018-07-22T12:55:54.581Z,18.50
2018-07-22T12:58:24.232Z,18.30
2018-07-22T13:00:54.420Z,16.67
2018-07-22T13:03:24.435Z,17.87
2018-07-22T13:05:54.337Z,18.07
2018-07-22T13:08:24.620Z,17.52
2018-07-22T13:10:54.524Z,17.63
2018-07-22T13:13:24.646Z,16.82
2018-07-22T13:15:54.710Z,16.60
2018-07-22T13:18:24.529Z,16.50
2018-07-22T13:20:54.767Z,17.17
2018-07-22T13:23:24.705Z,17.32
2018-07-22T13:25:54.452Z,16.43
2018-07-22T13:28:24.486Z,17.50
2018-07-22T13:30:54.651Z,17.80
2018-07-22T13:33:24.584Z,17.10
2018-07-22T13:35:54.776Z,16.60
2018-07-22T13:38:25.242Z,14.50
2018-07-22T13:40:54.695Z,14.97
2018-07-22T13:43:24.891Z,12.10
2018-07-22T13:45:54.562Z,12.90
2018-07-22T13:48:24.881Z,10.80
2018-07-22T13:50:54.715Z,10.55
2018-07-22T13:53:25.057Z,12.15
2018-07-22T13:55:54.656Z,10.70
2018-07-22T13:58:24.856Z,11.97
2018-07-22T14:00:54.796Z,12.07
2018-07-22T14:03:24.814Z,11.83
2018-07-22T14:05:54.803Z,11.87
2018-07-22T14:08:24.796Z,12.20
2018-07-22T14:10:55.121Z,11.27
2018-07-22T14:13:25.144Z,11.73
2018-07-22T14:15:54.821Z,13.03
2018-07-22T14:18:24.756Z,12.80
2018-07-22T14:20:54.984Z,12.60
2018-07-22T14:23:25.210Z,12.87
2018-07-22T14:25:54.952Z,12.10
2018-07-22T14:28:24.881Z,12.43
2018-07-22T14:30:55.082Z,12.40
2018-07-22T14:33:25.378Z,12.03
2018-07-22T14:35:55.052Z,11.00
2018-07-22T14:38:25.197Z,11.07
2018-07-22T14:40:55.132Z,10.20
2018-07-22T14:43:25.502Z,11.45
2018-07-22T14:45:55.463Z,12.83
2018-07-22T14:48:25.348Z,12.63
2018-07-22T14:50:55.110Z,13.83
2018-07-22T14:53:25.616Z,13.68
2018-07-22T14:55:55.134Z,12.60
2018-07-22T14:58:25.322Z,13.05
2018-07-22T15:00:55.398Z,13.08
2018-07-22T15:03:25.586Z,12.67
2018-07-22T15:05:55.560Z,12.03
2018-07-22T15:08:25.339Z,12.57
2018-07-22T15:10:55.499Z,12.60
2018-07-22T15:13:25.576Z,12.50
2018-07-22T15:15:55.518Z,12.37
2018-07-22T15:18:25.358Z,12.53
2018-07-22T15:20:55.539Z,12.68
2018-07-22T15:23:25.604Z,12.07
2018-07-22T15:25:55.716Z,11.90
2018-07-22T15:28:25.589Z,12.23
2018-07-22T15:30:55.975Z,12.40
2018-07-22T15:33:25.750Z,11.80
2018-07-22T15:35:55.664Z,10.75
2018-07-22T15:38:25.536Z,10.10
2018-07-22T15:40:55.620Z,9.03
2018-07-22T15:43:25.943Z,8.23
2018-07-22T15:45:55.693Z,7.95
2018-07-22T15:48:25.854Z,8.23
2018-07-22T15:50:55.978Z,7.83
2018-07-22T15:53:25.999Z,7.30
2018-07-22T15:55:55.862Z,7.42
2018-07-22T15:58:25.962Z,7.45
2018-07-22T16:00:55.800Z,6.50
2018-07-22T16:03:25.698Z,7.27
2018-07-22T16:05:55.873Z,6.55
2018-07-22T16:08:25.963Z,6.72
2018-07-22T16:10:55.891Z,5.70
2018-07-22T16:13:25.993Z,6.00
2018-07-22T16:15:56.033Z,5.63
2018-07-22T16:18:26.436Z,5.80
2018-07-22T16:20:55.994Z,5.90
2018-07-22T16:23:26.128Z,5.78
2018-07-22T16:25:55.959Z,5.43
2018-07-22T16:28:26.139Z,5.65
2018-07-22T16:30:56.059Z,5.47
2018-07-22T16:33:26.114Z,5.85
2018-07-22T16:35:56.108Z,6.30
2018-07-22T16:38:26.192Z,6.35
2018-07-22T16:40:56.431Z,6.03
2018-07-22T16:43:26.393Z,6.83
2018-07-22T16:45:56.293Z,6.25
2018-07-22T16:48:26.596Z,6.92
2018-07-22T16:50:56.140Z,6.23
2018-07-22T16:53:26.448Z,7.10
2018-07-22T16:55:56.574Z,6.37
2018-07-22T16:58:26.385Z,7.07
2018-07-22T17:00:56.512Z,6.97
2018-07-22T17:03:26.738Z,5.78
2018-07-22T17:05:56.477Z,6.73
2018-07-22T17:08:26.546Z,7.25
2018-07-22T17:10:56.398Z,7.13
2018-07-22T17:13:26.616Z,6.50
2018-07-22T17:15:56.347Z,6.70
2018-07-22T17:18:26.886Z,6.97
2018-07-22T17:20:56.763Z,6.60
2018-07-22T17:23:27.072Z,6.35
2018-07-22T17:25:56.664Z,6.10
2018-07-22T17:28:26.893Z,6.70
2018-07-22T17:30:56.883Z,6.70
2018-07-22T17:33:26.578Z,6.13
2018-07-22T17:35:57.125Z,6.85
2018-07-22T17:38:26.828Z,6.27
2018-07-22T17:40:56.926Z,6.73
2018-07-22T17:43:26.678Z,6.55
2018-07-22T17:45:56.873Z,6.95
2018-07-22T17:48:26.857Z,6.87
2018-07-22T17:50:56.732Z,6.85
2018-07-22T17:53:27.554Z,6.87
2018-07-22T17:55:57.278Z,6.80
2018-07-22T17:58:26.798Z,7.80
2018-07-22T18:00:57.200Z,7.15
2018-07-22T18:03:29.298Z,8.07
2018-07-22T18:05:58.538Z,6.67
2018-07-22T18:08:27.983Z,7.00
2018-07-22T18:10:57.466Z,7.40
2018-07-22T18:13:27.443Z,7.25
2018-07-22T18:15:57.113Z,7.20
2018-07-22T18:18:27.233Z,6.90
2018-07-22T18:20:57.221Z,7.42
2018-07-22T18:23:27.570Z,7.30
2018-07-22T18:25:57.279Z,7.37
2018-07-22T18:28:27.198Z,6.93
2018-07-22T18:30:57.318Z,7.50
2018-07-22T18:33:27.408Z,7.05
2018-07-22T18:35:57.323Z,7.13
2018-07-22T18:38:28.143Z,6.65
2018-07-22T18:40:57.742Z,8.00
2018-07-22T18:43:29.652Z,8.00
2018-07-22T18:45:59.340Z,6.80
2018-07-22T18:48:29.271Z,8.40
2018-07-22T18:50:59.092Z,8.03
2018-07-22T18:53:28.690Z,7.70
2018-07-22T18:56:00.108Z,7.70
2018-07-22T18:58:31.880Z,8.23
2018-07-22T19:01:02.137Z,7.67
2018-07-22T19:03:31.589Z,7.50
2018-07-22T19:06:01.698Z,8.20
2018-07-22T19:08:32.408Z,8.23
2018-07-22T19:11:02.953Z,8.07
2018-07-22T19:13:33.028Z,7.42
2018-07-22T19:16:03.597Z,8.40
2018-07-22T19:18:34.163Z,8.38
2018-07-22T19:21:03.906Z,7.67
2018-07-22T19:23:34.831Z,8.98
2018-07-22T19:26:04.617Z,8.70
2018-07-22T19:28:35.445Z,8.45
2018-07-22T19:31:05.555Z,8.60
2018-07-22T19:33:35.623Z,9.10
2018-07-22T19:36:05.853Z,8.13
2018-07-22T19:38:36.143Z,9.00
2018-07-22T19:41:06.463Z,8.50
2018-07-22T19:43:36.676Z,7.67
2018-07-22T19:46:07.004Z,8.55
2018-07-22T19:48:37.513Z,9.67
2018-07-22T19:51:07.645Z,8.10
2018-07-22T19:53:37.872Z,8.50
2018-07-22T19:56:07.649Z,8.80
2018-07-22T19:58:38.508Z,10.27
2018-07-22T20:01:08.812Z,10.15
2018-07-22T20:03:39.685Z,9.73
2018-07-22T20:06:09.734Z,10.47
2018-07-22T20:08:39.878Z,10.72
2018-07-22T20:11:10.025Z,9.25
2018-07-22T20:13:39.881Z,10.60
2018-07-22T20:16:09.628Z,8.23
2018-07-22T20:18:38.989Z,9.08
2018-07-22T20:21:08.857Z,8.10
2018-07-22T20:23:38.324Z,9.00
2018-07-22T20:26:07.622Z,8.57
2018-07-22T20:28:37.005Z,9.05
2018-07-22T20:31:06.741Z,10.67
2018-07-22T20:33:35.835Z,9.17
2018-07-22T20:36:05.032Z,8.60
2018-07-22T20:38:34.196Z,10.40
2018-07-22T20:41:03.778Z,9.50
2018-07-22T20:43:32.916Z,10.72
2018-07-22T20:46:02.204Z,11.30
2018-07-22T20:48:31.355Z,9.93
2018-07-22T20:51:01.052Z,10.43
2018-07-22T20:53:30.543Z,9.77
2018-07-22T20:56:00.075Z,10.87
2018-07-22T20:58:30.322Z,10.60
2018-07-22T21:00:59.863Z,11.13
2018-07-22T21:03:29.347Z,9.87
2018-07-22T21:05:58.912Z,11.15
2018-07-22T21:08:28.964Z,11.37
2018-07-22T21:10:58.987Z,10.85
2018-07-22T21:13:29.202Z,12.20
2018-07-22T21:15:59.040Z,11.05
2018-07-22T21:18:29.341Z,9.90
2018-07-22T21:20:59.394Z,10.80
2018-07-22T21:23:29.665Z,11.83
2018-07-22T21:25:59.636Z,12.60
2018-07-22T21:28:29.462Z,11.77
2018-07-22T21:30:59.445Z,11.53
2018-07-22T21:33:29.734Z,11.03
2018-07-22T21:35:59.286Z,11.73
2018-07-22T21:38:29.527Z,11.50
2018-07-22T21:40:59.405Z,12.37
2018-07-22T21:43:29.823Z,12.90
2018-07-22T21:45:59.719Z,11.60
2018-07-22T21:48:29.521Z,11.83
2018-07-22T21:50:59.445Z,11.27
2018-07-22T21:53:29.891Z,12.35
2018-07-22T21:55:59.715Z,12.45
2018-07-22T21:58:29.563Z,12.63
2018-07-22T22:00:59.958Z,13.18
2018-07-22T22:03:29.618Z,14.67
2018-07-22T22:05:59.757Z,13.05
2018-07-22T22:08:29.608Z,13.63
2018-07-22T22:11:00.138Z,13.48
2018-07-22T22:13:29.694Z,12.60
2018-07-22T22:15:59.751Z,13.20
2018-07-22T22:18:29.909Z,13.60
2018-07-22T22:20:59.794Z,13.47
2018-07-22T22:23:30.117Z,12.97
2018-07-22T22:26:00.012Z,13.33
2018-07-22T22:28:30.026Z,13.08
2018-07-22T22:30:59.923Z,13.57
2018-07-22T22:33:30.185Z,13.30
2018-07-22T22:36:00.000Z,12.58
2018-07-22T22:38:30.329Z,14.17
2018-07-22T22:41:00.373Z,14.60
2018-07-22T22:43:30.261Z,13.13
2018-07-22T22:46:00.184Z,12.30
2018-07-22T22:48:30.423Z,12.93
2018-07-22T22:51:00.528Z,13.50
2018-07-22T22:53:30.341Z,12.90
2018-07-22T22:56:00.893Z,13.68
2018-07-22T22:58:41.214Z,14.07
2018-07-22T23:01:10.320Z,13.78
2018-07-22T23:03:39.790Z,14.68
2018-07-22T23:06:08.886Z,15.13
2018-07-22T23:08:38.014Z,14.18
2018-07-22T23:11:07.510Z,14.15
2018-07-22T23:13:36.575Z,14.93
2018-07-22T23:16:06.129Z,15.90
2018-07-22T23:18:35.216Z,16.32
2018-07-22T23:21:05.148Z,14.57
2018-07-22T23:23:34.643Z,14.73
2018-07-22T23:26:03.719Z,14.10
2018-07-22T23:28:32.785Z,15.07
2018-07-22T23:31:02.295Z,15.10
2018-07-22T23:33:31.748Z,15.83
2018-07-22T23:36:01.042Z,16.00
2018-07-22T23:38:30.881Z,16.40
2018-07-22T23:41:00.729Z,17.02
2018-07-22T23:43:30.741Z,16.77
2018-07-22T23:46:00.954Z,16.93
2018-07-22T23:48:30.939Z,18.00
2018-07-22T23:51:01.225Z,18.45
2018-07-22T23:53:31.166Z,18.20
2018-07-22T23:56:01.138Z,18.73
2018-07-22T23:58:31.404Z,18.53
